MMLP/LAP METAR and TAF weather

Enter ICAO airport designator
Station Type Date Time Source
MMLP METAR 2021/03/05 00:55 UTC NOAA

MMLP 050055Z 36012KT 10SM BKN200 20/06 A3007 RMK 8/008 AC


Station Type Date Time Source
MMLP Decoded METAR 2021/03/05 00:55 UTC NOAA

La Paz International Airport, Mexico (MMLP) 24-04N 110-22W
Mar 04, 2021 - 07:55 PM EST / 2021.03.05 0055 UTC
Wind: from the N (360 degrees) at 14 MPH (12 KT):0
Visibility: 10 mile(s):0
Sky conditions: mostly cloudy
Temperature: 68 F (20 C)
Dew Point: 42 F (6 C)
Relative Humidity: 39%
Pressure (altimeter): 30.07 in. Hg (1018 hPa)
ob: MMLP 050055Z 36012KT 10SM BKN200 20/06 A3007 RMK 8/008 AC
cycle: 1

Station Type Date Time Source
MMLP TAF 2021/03/04 18:47 UTC NOAA

TAF MMLP 041640Z 0418/0518 02015KT P6SM BKN250
FM050300 03010KT P6SM BKN250
BECMG 0509/0510 02015KT
FM051700 01015KT P6SM SCT250

Example: see airport list